Time;durP1;ratioP1;P1;durP2;ratioP2;P2;SDS_P1;SDS_P2;PMS_P1;PMS_P2;Temp;Humidity;BMP_temperature;BMP_pressure;BME280_temperature;BME280_humidity;BME280_pressure;Samples;Min_cycle;Max_cycle;Signal;HPM_P1;HPM_P2
2021/04/05 00:00:50;;;;;;;32.53;15.15;;;5.80;85.60;;;;;;5051088;28;20017;-73
2021/04/05 00:03:16;;;;;;;30.35;16.23;;;5.80;86.30;;;;;;5052382;28;20369;-74
2021/04/05 00:05:41;;;;;;;33.45;17.73;;;5.80;86.00;;;;;;5052142;28;20033;-74
2021/04/05 00:08:07;;;;;;;32.88;19.15;;;5.80;85.80;;;;;;5050533;28;20043;-74
2021/04/05 00:10:44;;;;;;;31.92;16.45;;;5.80;85.70;;;;;;5050938;28;20032;-74
2021/04/05 00:13:16;;;;;;;39.50;18.25;;;5.80;86.00;;;;;;5050785;28;20024;-74
2021/04/05 00:15:42;;;;;;;33.17;16.35;;;5.80;86.00;;;;;;5051981;28;20044;-75
2021/04/05 00:18:08;;;;;;;42.63;17.73;;;5.80;86.10;;;;;;5050720;28;20150;-74
2021/04/05 00:20:57;;;;;;;33.92;17.98;;;5.80;85.90;;;;;;5051070;28;20088;-74
2021/04/05 00:23:22;;;;;;;35.47;18.05;;;5.80;86.10;;;;;;5052766;28;20017;-74
2021/04/05 00:25:48;;;;;;;36.65;19.20;;;5.80;86.10;;;;;;5052758;28;20131;-74
2021/04/05 00:28:13;;;;;;;34.90;18.85;;;5.80;86.00;;;;;;5051250;28;20048;-75
2021/04/05 00:30:41;;;;;;;40.80;19.55;;;5.80;86.20;;;;;;5051131;28;20040;-75
2021/04/05 00:33:07;;;;;;;33.33;17.88;;;5.80;86.60;;;;;;5050645;28;20024;-75
2021/04/05 00:35:36;;;;;;;41.00;21.58;;;5.80;86.30;;;;;;5050819;28;20032;-75
2021/04/05 00:38:08;;;;;;;36.97;19.08;;;5.80;86.40;;;;;;5051669;28;20036;-74
2021/04/05 00:40:52;;;;;;;37.20;19.17;;;5.80;86.40;;;;;;5050734;28;20017;-74
2021/04/05 00:43:19;;;;;;;30.50;18.42;;;5.80;86.30;;;;;;5052032;28;20040;-75
2021/04/05 00:45:46;;;;;;;43.28;18.20;;;5.80;86.90;;;;;;5052068;28;20099;-75
2021/04/05 00:48:14;;;;;;;37.53;21.27;;;5.80;86.30;;;;;;5050135;28;20102;-75
2021/04/05 00:50:49;;;;;;;47.42;20.63;;;5.80;86.30;;;;;;5051526;28;20028;-75
2021/04/05 00:53:17;;;;;;;42.25;21.85;;;5.80;86.70;;;;;;5051878;28;20048;-75
2021/04/05 00:55:45;;;;;;;43.15;20.38;;;5.80;86.60;;;;;;5050444;28;20230;-75
2021/04/05 00:58:10;;;;;;;39.45;21.17;;;5.80;86.70;;;;;;5051586;28;20028;-75
2021/04/05 01:00:49;;;;;;;44.08;21.45;;;5.90;87.10;;;;;;5051862;28;20017;-74
2021/04/05 01:03:19;;;;;;;45.33;21.27;;;5.90;87.10;;;;;;5050348;28;20017;-74
2021/04/05 01:05:46;;;;;;;46.03;22.43;;;5.90;86.90;;;;;;5050283;28;20048;-74
2021/04/05 01:08:16;;;;;;;49.45;22.58;;;5.90;87.00;;;;;;5050990;28;20049;-75
2021/04/05 01:10:41;;;;;;;;;;;5.90;87.10;;;;;;5052183;28;20025;-74
2021/04/05 01:13:07;;;;;;;42.45;23.40;;;5.90;87.20;;;;;;5050227;28;19946;-74
2021/04/05 01:15:33;;;;;;;44.00;21.52;;;5.90;87.30;;;;;;5051788;28;20066;-74
2021/04/05 01:17:58;;;;;;;44.67;20.98;;;5.90;87.60;;;;;;5054766;28;20377;-74
2021/04/05 01:20:26;;;;;;;42.22;21.83;;;5.90;88.00;;;;;;5055339;28;20017;-75
2021/04/05 01:22:52;;;;;;;39.95;21.15;;;5.90;87.70;;;;;;5053846;28;20017;-75
2021/04/05 01:25:21;;;;;;;50.85;22.77;;;5.90;87.70;;;;;;5054922;28;20021;-75
2021/04/05 01:27:47;;;;;;;41.00;22.88;;;5.90;88.10;;;;;;5053834;28;20021;-74
2021/04/05 01:30:27;;;;;;;45.17;21.80;;;5.90;87.80;;;;;;5054782;28;20055;-74
2021/04/05 01:32:59;;;;;;;50.15;22.10;;;5.90;87.70;;;;;;5053827;28;20036;-74
2021/04/05 01:35:25;;;;;;;39.97;20.45;;;6.00;87.80;;;;;;5053717;28;20029;-74
2021/04/05 01:37:51;;;;;;;48.83;22.30;;;6.00;87.60;;;;;;5054579;28;20032;-75
2021/04/05 01:40:16;;;;;;;42.60;24.05;;;6.00;87.50;;;;;;5054366;28;20029;-73
2021/04/05 01:42:42;;;;;;;46.08;22.63;;;6.10;87.50;;;;;;5054859;28;20075;-73
2021/04/05 01:45:08;;;;;;;38.45;21.27;;;6.10;87.40;;;;;;5054837;28;20103;-74
2021/04/05 01:47:34;;;;;;;45.30;21.88;;;6.10;87.30;;;;;;5055032;28;20025;-74
2021/04/05 01:49:59;;;;;;;43.80;20.65;;;6.20;87.40;;;;;;5054449;28;20021;-75
2021/04/05 01:52:25;;;;;;;43.15;21.95;;;6.20;87.50;;;;;;5053435;28;20021;-74
2021/04/05 01:54:50;;;;;;;46.05;20.95;;;6.20;87.60;;;;;;5054575;28;20021;-74
2021/04/05 01:57:17;;;;;;;40.22;20.70;;;6.30;87.80;;;;;;5053012;28;20535;-74
2021/04/05 01:59:42;;;;;;;44.80;22.45;;;6.30;88.40;;;;;;5054462;28;20104;-74
2021/04/05 02:02:08;;;;;;;43.58;21.10;;;6.30;87.60;;;;;;5053031;28;20132;-74
2021/04/05 02:04:35;;;;;;;39.72;20.80;;;6.30;87.60;;;;;;5053182;28;20020;-74
2021/04/05 02:07:02;;;;;;;39.25;20.20;;;6.40;87.80;;;;;;5052443;28;20041;-75
2021/04/05 02:09:28;;;;;;;42.42;22.83;;;6.40;88.00;;;;;;5052940;28;20102;-74
2021/04/05 02:11:54;;;;;;;41.80;20.60;;;6.40;88.00;;;;;;5054164;28;20025;-74
2021/04/05 02:14:19;;;;;;;45.13;20.60;;;6.50;87.90;;;;;;5053592;28;20480;-75
2021/04/05 02:16:45;;;;;;;42.33;19.98;;;6.50;87.80;;;;;;5052524;28;20031;-75
2021/04/05 02:19:15;;;;;;;41.95;21.02;;;6.50;88.00;;;;;;5053783;28;20025;-74
2021/04/05 02:21:41;;;;;;;45.30;23.05;;;6.60;88.20;;;;;;5052822;28;20018;-74
2021/04/05 02:24:07;;;;;;;53.05;23.15;;;6.60;88.30;;;;;;5053726;28;20020;-74
2021/04/05 02:26:35;;;;;;;45.90;22.17;;;6.60;88.50;;;;;;5052694;28;20016;-74
2021/04/05 02:29:02;;;;;;;49.67;21.38;;;6.70;88.60;;;;;;5052323;28;20013;-74
2021/04/05 02:31:33;;;;;;;41.25;23.05;;;6.70;88.60;;;;;;5052866;28;20454;-75
2021/04/05 02:33:59;;;;;;;42.30;20.55;;;6.80;88.70;;;;;;5052624;28;20021;-74
2021/04/05 02:36:27;;;;;;;48.22;22.23;;;6.80;88.80;;;;;;5053148;28;20472;-74
2021/04/05 02:38:55;;;;;;;48.13;22.13;;;6.80;88.70;;;;;;5052323;28;20028;-74
2021/04/05 02:41:24;;;;;;;49.17;23.55;;;6.80;88.80;;;;;;5052060;28;20074;-74
2021/04/05 02:43:51;;;;;;;46.33;23.27;;;6.80;89.10;;;;;;5053599;28;20095;-75
2021/04/05 02:46:20;;;;;;;43.92;19.90;;;6.80;89.20;;;;;;5052032;28;20024;-73
2021/04/05 02:48:48;;;;;;;40.67;23.13;;;6.80;89.30;;;;;;5052096;28;20025;-75
2021/04/05 02:51:15;;;;;;;54.17;22.52;;;6.80;89.40;;;;;;5051946;28;20021;-74
2021/04/05 02:53:47;;;;;;;50.47;23.00;;;6.90;89.40;;;;;;5053389;28;20024;-74
2021/04/05 02:56:13;;;;;;;55.33;24.30;;;6.90;89.50;;;;;;5053123;28;20021;-74
2021/04/05 02:58:45;;;;;;;42.78;21.65;;;6.90;89.80;;;;;;5051991;28;20023;-74
2021/04/05 03:01:11;;;;;;;51.25;24.48;;;7.00;89.70;;;;;;5051529;28;20021;-75
2021/04/05 03:03:38;;;;;;;45.75;22.25;;;7.00;89.90;;;;;;5053559;28;20017;-74
2021/04/05 03:06:06;;;;;;;50.03;21.60;;;7.10;89.80;;;;;;5084987;28;20029;-75
2021/04/05 03:08:32;;;;;;;49.70;22.15;;;7.10;89.60;;;;;;5051866;28;20331;-75
2021/04/05 03:10:58;;;;;;;46.20;21.35;;;7.10;89.70;;;;;;5053099;28;20017;-74
2021/04/05 03:13:25;;;;;;;43.55;19.90;;;7.20;89.70;;;;;;5053190;28;20025;-75
2021/04/05 03:15:52;;;;;;;45.63;21.10;;;7.20;89.40;;;;;;5051438;28;20210;-74
2021/04/05 03:18:20;;;;;;;46.60;21.02;;;7.20;89.40;;;;;;5051459;28;20111;-74
2021/04/05 03:20:46;;;;;;;42.78;19.95;;;7.30;89.40;;;;;;5052960;28;20047;-74
2021/04/05 03:23:11;;;;;;;42.55;18.63;;;7.30;89.40;;;;;;5052663;28;20442;-75
2021/04/05 03:25:37;;;;;;;40.53;18.83;;;7.30;89.00;;;;;;5051594;28;20063;-74
2021/04/05 03:28:03;;;;;;;51.55;20.58;;;7.30;89.00;;;;;;5051457;28;20579;-74
2021/04/05 03:30:42;;;;;;;44.60;19.20;;;7.40;88.90;;;;;;5052879;28;20039;-74
2021/04/05 03:33:36;;;;;;;43.10;20.30;;;7.40;88.90;;;;;;5052693;28;20059;-74
2021/04/05 03:36:07;;;;;;;42.95;20.08;;;7.40;88.80;;;;;;5051368;28;20024;-75
2021/04/05 03:38:35;;;;;;;45.30;19.63;;;7.40;88.60;;;;;;5050982;28;20488;-75
2021/04/05 03:41:04;;;;;;;45.05;18.33;;;7.40;88.90;;;;;;5051128;28;20021;-74
2021/04/05 03:43:36;;;;;;;44.77;18.33;;;7.50;88.80;;;;;;5051326;28;20023;-74
2021/04/05 03:46:05;;;;;;;54.45;21.27;;;7.50;88.80;;;;;;5052544;28;20343;-75
2021/04/05 03:48:38;;;;;;;42.78;20.33;;;7.50;88.90;;;;;;5053011;28;20116;-74
2021/04/05 03:51:23;;;;;;;40.58;18.45;;;7.50;89.00;;;;;;5051143;28;20036;-75
2021/04/05 03:54:08;;;;;;;47.78;19.40;;;7.50;89.00;;;;;;5051110;28;20016;-75
2021/04/05 03:56:53;;;;;;;45.63;18.65;;;7.50;89.00;;;;;;5051960;28;20369;-74
2021/04/05 03:59:27;;;;;;;46.17;20.45;;;7.50;88.90;;;;;;5050860;28;20021;-74
2021/04/05 04:01:58;;;;;;;45.10;19.50;;;7.50;88.90;;;;;;5052408;28;20017;-75
2021/04/05 04:04:32;;;;;;;41.97;19.15;;;7.50;88.80;;;;;;5050745;28;20040;-75
2021/04/05 04:09:27;;;;;;;36.20;17.73;;;7.50;89.00;;;;;;5052121;28;20387;-74
2021/04/05 04:11:56;;;;;;;49.75;20.55;;;7.50;89.00;;;;;;5050846;28;20473;-75
2021/04/05 04:14:22;;;;;;;39.20;18.50;;;7.50;89.10;;;;;;5050615;28;20021;-74
2021/04/05 04:16:48;;;;;;;55.47;20.50;;;7.50;89.20;;;;;;5051938;28;20071;-75
2021/04/05 04:19:16;;;;;;;37.38;19.98;;;7.50;89.10;;;;;;5050601;28;20111;-74
2021/04/05 04:21:45;;;;;;;43.88;19.00;;;7.50;89.00;;;;;;5050922;28;20117;-74
2021/04/05 04:24:11;;;;;;;44.58;20.42;;;7.50;89.20;;;;;;5050592;28;20461;-74
2021/04/05 04:26:37;;;;;;;40.17;18.27;;;7.60;89.40;;;;;;5050502;28;20465;-75
2021/04/05 04:29:04;;;;;;;40.60;18.42;;;7.60;89.20;;;;;;5050756;28;20013;-75
2021/04/05 04:31:30;;;;;;;39.72;17.27;;;7.60;89.20;;;;;;5051896;28;20028;-74
2021/04/05 04:33:56;;;;;;;35.13;17.92;;;7.60;88.90;;;;;;5050632;28;20446;-75
2021/04/05 04:36:28;;;;;;;40.50;17.50;;;7.60;88.70;;;;;;5050299;28;20056;-74
2021/04/05 04:38:55;;;;;;;35.15;15.60;;;7.70;88.60;;;;;;5050663;28;20017;-75
2021/04/05 04:41:26;;;;;;;28.52;16.00;;;7.70;88.50;;;;;;5051690;28;20482;-75
2021/04/05 04:44:00;;;;;;;33.15;14.43;;;7.70;88.10;;;;;;5051839;28;20108;-75
2021/04/05 04:46:26;;;;;;;33.08;14.10;;;7.70;88.20;;;;;;5050327;28;20102;-76
2021/04/05 04:49:07;;;;;;;30.05;13.55;;;7.80;88.20;;;;;;5052129;28;20031;-75
2021/04/05 04:51:33;;;;;;;33.83;14.63;;;7.80;88.30;;;;;;5052948;28;20471;-75
2021/04/05 04:54:01;;;;;;;36.20;14.70;;;7.80;88.40;;;;;;5054407;28;20021;-76
2021/04/05 04:56:27;;;;;;;32.72;15.00;;;7.80;88.30;;;;;;5055363;28;20060;-75
2021/04/05 04:59:00;;;;;;;26.02;13.02;;;7.80;88.10;;;;;;5054458;28;20017;-76
2021/04/05 05:01:29;;;;;;;28.08;13.60;;;7.80;88.10;;;;;;5054120;28;20028;-76
2021/04/05 05:03:58;;;;;;;32.10;14.43;;;7.80;88.40;;;;;;5055594;28;20017;-76
2021/04/05 05:06:25;;;;;;;34.65;13.93;;;7.90;88.30;;;;;;5055376;28;20071;-77
2021/04/05 05:08:51;;;;;;;27.13;12.82;;;7.90;88.40;;;;;;5054205;28;20036;-76
2021/04/05 05:11:17;;;;;;;23.92;12.35;;;7.80;88.00;;;;;;5054917;28;20013;-77
2021/04/05 05:13:43;;;;;;;21.85;10.75;;;7.90;88.00;;;;;;5054123;28;20044;-77
2021/04/05 05:16:09;;;;;;;25.13;10.65;;;7.90;87.80;;;;;;5055150;28;20020;-77
2021/04/05 05:18:36;;;;;;;29.70;12.07;;;7.90;87.70;;;;;;5053720;28;20021;-77
2021/04/05 05:21:07;;;;;;;22.55;10.40;;;8.00;87.70;;;;;;5055204;28;20019;-77
2021/04/05 05:23:35;;;;;;;25.80;10.88;;;8.00;86.60;;;;;;5053700;28;20361;-77
2021/04/05 05:26:02;;;;;;;24.25;10.38;;;8.00;86.50;;;;;;5053849;28;20090;-76
2021/04/05 05:28:28;;;;;;;26.90;10.23;;;8.10;86.40;;;;;;5053289;28;20048;-77
2021/04/05 05:30:53;;;;;;;23.83;10.90;;;8.10;86.20;;;;;;5053791;28;20361;-77
2021/04/05 05:33:20;;;;;;;24.60;10.75;;;8.10;86.00;;;;;;5053442;28;20028;-76
2021/04/05 05:35:47;;;;;;;25.08;9.80;;;8.10;85.50;;;;;;5053606;28;20024;-77
2021/04/05 05:38:13;;;;;;;19.50;10.00;;;8.20;85.40;;;;;;5054551;28;20033;-77
2021/04/05 05:40:42;;;;;;;20.65;8.57;;;8.20;85.10;;;;;;5054851;28;20063;-77
2021/04/05 05:43:30;;;;;;;8.95;5.22;;;8.30;85.30;;;;;;5053511;28;20025;-81
2021/04/05 05:45:55;;;;;;;14.95;4.95;;;8.30;85.80;;;;;;5054642;28;20021;-78
2021/04/05 05:48:24;;;;;;;10.07;3.17;;;8.30;84.70;;;;;;5053238;28;20009;-79
2021/04/05 05:50:52;;;;;;;8.63;2.60;;;8.10;85.40;;;;;;5053204;28;20457;-78
2021/04/05 05:53:43;;;;;;;6.97;2.53;;;7.90;85.80;;;;;;5053168;28;20155;-78
2021/04/05 05:56:14;;;;;;;7.32;2.63;;;7.60;85.80;;;;;;5053224;28;20017;-78
2021/04/05 05:58:46;;;;;;;8.15;2.20;;;7.40;86.40;;;;;;5053380;28;20055;-78
2021/04/05 06:01:54;;;;;;;8.07;2.10;;;7.30;88.10;;;;;;5053287;28;20078;-78
2021/04/05 06:05:01;;;;;;;6.30;2.58;;;7.10;88.10;;;;;;5052776;28;20021;-79
2021/04/05 06:07:42;;;;;;;7.38;2.40;;;7.10;90.30;;;;;;5052080;28;20036;-78
2021/04/05 06:10:18;;;;;;;7.50;2.80;;;7.00;90.20;;;;;;5052974;28;20017;-78
2021/04/05 06:12:50;;;;;;;8.93;2.35;;;6.90;90.10;;;;;;5053022;28;20028;-78
2021/04/05 06:15:23;;;;;;;9.73;2.17;;;6.90;90.30;;;;;;5052605;28;20021;-78
2021/04/05 06:18:22;;;;;;;4.45;1.10;;;6.80;90.30;;;;;;5054010;28;20021;-78
2021/04/05 06:21:05;;;;;;;5.32;1.33;;;6.80;90.60;;;;;;5053995;28;20370;-79
2021/04/05 06:23:46;;;;;;;3.78;1.48;;;6.70;90.00;;;;;;5052191;28;20075;-75
2021/04/05 06:26:33;;;;;;;7.70;1.58;;;6.70;90.30;;;;;;5052690;28;20052;-78
2021/04/05 06:29:36;;;;;;;7.00;1.60;;;6.60;90.00;;;;;;5052778;28;20028;-78
2021/04/05 06:32:40;;;;;;;6.18;1.45;;;6.50;90.10;;;;;;5052744;28;20025;-78
2021/04/05 06:35:24;;;;;;;5.97;1.45;;;6.50;89.70;;;;;;5053962;28;20023;-77
2021/04/05 06:37:56;;;;;;;3.53;1.23;;;6.40;90.10;;;;;;5052454;28;20374;-79
2021/04/05 06:40:25;;;;;;;6.72;1.60;;;6.40;90.00;;;;;;5052293;28;20025;-79
2021/04/05 06:43:16;;;;;;;8.57;1.42;;;6.40;90.70;;;;;;5052418;28;20021;-79
2021/04/05 06:46:15;;;;;;;4.18;1.30;;;6.40;90.10;;;;;;5052438;28;20021;-79
2021/04/05 06:49:28;;;;;;;9.02;2.33;;;6.40;90.50;;;;;;5052092;28;20025;-80
2021/04/05 06:52:14;;;;;;;5.90;1.73;;;6.40;90.60;;;;;;5051809;28;20031;-79
2021/04/05 06:54:39;;;;;;;6.75;1.67;;;6.40;89.20;;;;;;5053271;28;20024;-78
2021/04/05 06:57:11;;;;;;;9.55;1.65;;;6.40;88.80;;;;;;5052081;28;20025;-79
2021/04/05 07:00:01;;;;;;;6.65;1.50;;;6.40;88.10;;;;;;5051877;28;20017;-80
2021/04/05 07:02:58;;;;;;;5.60;1.63;;;6.40;88.20;;;;;;5053131;28;20063;-79
2021/04/05 07:05:49;;;;;;;5.68;1.75;;;6.40;86.70;;;;;;5052531;28;20029;-79
2021/04/05 07:08:36;;;;;;;3.88;1.73;;;6.40;88.30;;;;;;5051644;28;20072;-82
2021/04/05 07:11:27;;;;;;;5.03;1.20;;;6.50;90.40;;;;;;5053414;28;20021;-79
2021/04/05 07:14:03;;;;;;;7.85;1.50;;;6.50;88.80;;;;;;5051615;28;20071;-78
2021/04/05 07:16:50;;;;;;;6.07;0.95;;;6.50;90.10;;;;;;5052603;28;20120;-78
2021/04/05 07:19:40;;;;;;;6.10;1.40;;;6.50;88.50;;;;;;5052435;28;20027;-78
2021/04/05 07:22:20;;;;;;;;;;;6.20;88.10;;;;;;5052608;28;20021;-78
2021/04/05 07:24:57;;;;;;;4.43;1.10;;;6.10;88.80;;;;;;5052969;28;19900;-79
2021/04/05 07:27:50;;;;;;;4.97;1.15;;;6.00;89.50;;;;;;5051494;28;20037;-78
2021/04/05 07:30:24;;;;;;;5.57;0.95;;;5.90;90.10;;;;;;5051499;28;20021;-78
2021/04/05 07:33:21;;;;;;;7.32;1.65;;;6.00;89.80;;;;;;5051573;28;20100;-78
2021/04/05 07:36:09;;;;;;;5.60;1.38;;;6.10;90.80;;;;;;5051367;28;20013;-79
2021/04/05 07:39:07;;;;;;;9.88;2.53;;;6.00;90.70;;;;;;5051217;28;20044;-79
2021/04/05 07:41:44;;;;;;;9.45;1.88;;;5.90;89.70;;;;;;5051434;28;20017;-77
2021/04/05 07:44:28;;;;;;;12.93;2.03;;;5.80;88.50;;;;;;5052612;28;20484;-77
2021/04/05 07:47:24;;;;;;;17.13;2.33;;;5.80;90.60;;;;;;5051288;28;20112;-77
2021/04/05 07:50:24;;;;;;;14.73;2.03;;;5.70;90.40;;;;;;5051067;28;20032;-78
2021/04/05 07:53:04;;;;;;;9.82;1.73;;;5.50;90.00;;;;;;5061218;28;20032;-77
2021/04/05 07:55:31;;;;;;;10.73;2.55;;;5.40;89.50;;;;;;5050870;28;20025;-78
2021/04/05 07:58:13;;;;;;;18.65;4.65;;;5.40;91.20;;;;;;5050959;28;20229;-78
2021/04/05 08:00:47;;;;;;;17.90;2.72;;;5.30;88.10;;;;;;5050822;28;20058;-78
2021/04/05 08:03:31;;;;;;;20.83;4.07;;;5.30;88.60;;;;;;5052306;28;20352;-78
2021/04/05 08:06:03;;;;;;;19.42;3.05;;;5.20;85.80;;;;;;5050456;28;20025;-78
2021/04/05 08:08:52;;;;;;;19.98;4.30;;;5.20;85.80;;;;;;5050473;28;20043;-77
2021/04/05 08:12:01;;;;;;;30.42;5.43;;;5.20;86.90;;;;;;5050755;28;20020;-79
2021/04/05 08:14:57;;;;;;;26.00;4.63;;;5.20;82.20;;;;;;5051761;28;20066;-78
2021/04/05 08:17:42;;;;;;;34.35;10.00;;;5.10;83.10;;;;;;5050120;28;20067;-77
2021/04/05 08:20:56;;;;;;;17.90;3.00;;;5.20;83.60;;;;;;5050704;28;20057;-78
2021/04/05 08:23:39;;;;;;;17.63;3.75;;;5.20;82.30;;;;;;5050038;28;20506;-77
2021/04/05 08:26:34;;;;;;;14.50;3.35;;;5.30;84.50;;;;;;5052820;28;20032;-78
2021/04/05 08:29:22;;;;;;;12.50;2.22;;;5.40;80.50;;;;;;5053666;28;20400;-78
2021/04/05 08:32:06;;;;;;;12.98;2.53;;;5.50;75.50;;;;;;5054660;28;20104;-79
2021/04/05 08:34:55;;;;;;;14.07;4.03;;;5.50;79.00;;;;;;5054338;28;20021;-80
2021/04/05 08:37:33;;;;;;;11.37;3.60;;;5.60;78.00;;;;;;5055462;28;20033;-79
2021/04/05 08:40:26;;;;;;;16.98;3.15;;;5.70;74.90;;;;;;5054572;28;20358;-79
2021/04/05 08:43:19;;;;;;;15.38;2.53;;;5.90;82.60;;;;;;5054539;28;20028;-79
2021/04/05 08:46:08;;;;;;;15.57;3.97;;;6.10;80.00;;;;;;5054152;28;20018;-79
2021/04/05 08:48:37;;;;;;;9.65;2.15;;;6.10;73.90;;;;;;5053670;28;20479;-79
2021/04/05 08:51:08;;;;;;;12.73;3.13;;;6.20;75.60;;;;;;5054186;28;20024;-78
2021/04/05 08:53:39;;;;;;;5.10;1.08;;;6.40;82.60;;;;;;5053972;28;20102;-78
2021/04/05 08:56:06;;;;;;;10.27;3.28;;;6.70;77.80;;;;;;5053935;28;20021;-78
2021/04/05 08:58:44;;;;;;;24.65;7.82;;;6.90;68.30;;;;;;5053968;28;20403;-78
2021/04/05 09:01:15;;;;;;;13.02;3.67;;;7.00;76.50;;;;;;5055445;28;20060;-78
2021/04/05 09:03:44;;;;;;;14.15;4.07;;;7.10;73.60;;;;;;5053830;28;20361;-78
2021/04/05 09:06:14;;;;;;;23.90;4.78;;;7.00;66.70;;;;;;5053732;28;20408;-78
2021/04/05 09:08:42;;;;;;;84.60;27.58;;;7.00;65.80;;;;;;5053649;28;20016;-78
2021/04/05 09:11:11;;;;;;;32.10;10.80;;;7.00;69.00;;;;;;5055087;28;20017;-78
2021/04/05 09:13:49;;;;;;;28.10;8.80;;;6.90;71.90;;;;;;5053618;28;20381;-77
2021/04/05 09:16:24;;;;;;;13.40;2.60;;;6.80;77.10;;;;;;5053499;28;20025;-78
2021/04/05 09:19:21;;;;;;;10.43;2.35;;;6.60;82.20;;;;;;5053635;28;20047;-79
2021/04/05 09:22:43;;;;;;;8.95;2.22;;;6.30;76.10;;;;;;5053586;28;20017;-78
2021/04/05 09:25:17;;;;;;;5.93;1.30;;;6.30;86.70;;;;;;5053261;28;20033;-78
2021/04/05 09:28:02;;;;;;;4.65;1.60;;;6.40;81.40;;;;;;5054413;28;20390;-77
2021/04/05 09:30:52;;;;;;;3.10;0.73;;;6.40;78.40;;;;;;5054334;28;20013;-79
2021/04/05 09:33:21;;;;;;;;;;;6.40;76.40;;;;;;5053940;28;20412;-81
2021/04/05 09:36:20;;;;;;;2.13;0.80;;;6.10;80.80;;;;;;5053686;28;20440;-78
2021/04/05 09:39:12;;;;;;;2.03;0.73;;;5.90;83.40;;;;;;5052767;28;20029;-78
2021/04/05 09:42:05;;;;;;;4.68;0.93;;;5.50;82.80;;;;;;5053228;28;20017;-78
2021/04/05 09:44:47;;;;;;;7.80;1.40;;;5.30;83.60;;;;;;5053172;28;20468;-78
2021/04/05 09:47:40;;;;;;;6.82;1.20;;;5.30;84.50;;;;;;5053248;28;20444;-78
2021/04/05 09:50:43;;;;;;;5.93;2.05;;;5.30;86.40;;;;;;5052945;28;20486;-78
2021/04/05 09:53:39;;;;;;;8.68;1.77;;;5.30;87.30;;;;;;5053087;28;20025;-79
2021/04/05 09:56:09;;;;;;;5.82;1.20;;;5.30;79.30;;;;;;5052770;28;20032;-78
2021/04/05 09:58:47;;;;;;;7.93;1.03;;;5.40;83.50;;;;;;5052829;28;20112;-78
2021/04/05 10:01:33;;;;;;;31.65;12.27;;;5.40;77.00;;;;;;5052999;28;20108;-77
2021/04/05 10:04:13;;;;;;;12.27;2.85;;;5.40;78.40;;;;;;5052778;28;20049;-77
2021/04/05 10:06:39;;;;;;;;;;;5.50;76.30;;;;;;5053020;28;20318;-78
2021/04/05 10:09:09;;;;;;;11.68;1.92;;;5.60;77.40;;;;;;5053224;28;20363;-77
2021/04/05 10:11:45;;;;;;;9.60;1.60;;;5.70;78.20;;;;;;5052903;28;20175;-78
2021/04/05 10:14:14;;;;;;;12.52;2.17;;;5.90;73.60;;;;;;5054478;28;20032;-78
2021/04/05 10:16:45;;;;;;;10.88;1.77;;;6.00;69.00;;;;;;5053597;28;20029;-78
2021/04/05 10:19:14;;;;;;;7.65;1.50;;;6.20;79.10;;;;;;5052825;28;20075;-78
2021/04/05 10:21:59;;;;;;;8.73;1.73;;;6.40;78.80;;;;;;5052449;28;20362;-78
2021/04/05 10:24:25;;;;;;;8.13;1.85;;;6.50;66.40;;;;;;5053738;28;20437;-78
2021/04/05 10:26:54;;;;;;;7.03;1.35;;;6.40;64.20;;;;;;5052268;28;20036;-79
2021/04/05 10:29:24;;;;;;;9.82;2.10;;;6.20;70.00;;;;;;5053777;28;20473;-78
2021/04/05 10:31:50;;;;;;;10.60;2.05;;;6.20;76.60;;;;;;5052440;28;20073;-79
2021/04/05 10:34:20;;;;;;;9.25;1.83;;;6.10;68.10;;;;;;5052475;28;20023;-77
2021/04/05 10:36:49;;;;;;;9.15;1.92;;;6.10;68.10;;;;;;5052049;28;20028;-79
2021/04/05 10:39:15;;;;;;;11.73;2.05;;;6.30;83.00;;;;;;5052415;28;20017;-81
2021/04/05 10:41:52;;;;;;;7.13;1.65;;;6.60;74.40;;;;;;5053495;28;20020;-77
2021/04/05 10:44:22;;;;;;;11.05;2.42;;;6.80;69.30;;;;;;5052183;28;20025;-80
2021/04/05 10:47:05;;;;;;;10.20;2.53;;;6.90;68.60;;;;;;5051793;28;20017;-76
2021/04/05 10:49:33;;;;;;;18.50;5.88;;;6.80;77.80;;;;;;5050304;28;20477;-79
2021/04/05 10:52:12;;;;;;;12.30;3.80;;;6.60;76.30;;;;;;5051954;28;20368;-78
2021/04/05 10:54:40;;;;;;;23.27;3.20;;;6.60;69.30;;;;;;5051638;28;20017;-80
2021/04/05 10:57:11;;;;;;;7.50;1.52;;;6.50;71.40;;;;;;5051687;28;20020;-79
2021/04/05 10:59:53;;;;;;;10.48;1.73;;;6.50;71.70;;;;;;5051636;28;20039;-81
2021/04/05 11:02:21;;;;;;;9.07;1.50;;;6.60;62.50;;;;;;5051957;28;20009;-81
2021/04/05 11:04:58;;;;;;;12.80;2.10;;;6.60;61.70;;;;;;5056390;28;20052;-82
2021/04/05 11:07:25;;;;;;;10.82;2.90;;;7.10;73.30;;;;;;5051526;28;20060;-82
2021/04/05 11:09:58;;;;;;;14.57;2.45;;;7.60;70.00;;;;;;5051476;28;20029;-82
2021/04/05 11:12:35;;;;;;;10.75;1.77;;;8.20;66.00;;;;;;5051530;28;20021;-81
2021/04/05 11:15:04;;;;;;;11.20;1.75;;;8.80;66.10;;;;;;5051673;28;20453;-82
2021/04/05 11:17:33;;;;;;;10.43;1.55;;;8.80;70.20;;;;;;5050810;28;20020;-76
2021/04/05 11:20:01;;;;;;;9.32;1.52;;;8.10;72.40;;;;;;5051214;28;20542;-80
2021/04/05 11:22:29;;;;;;;5.53;1.27;;;7.10;68.20;;;;;;5052707;28;20328;-81
2021/04/05 11:25:05;;;;;;;12.38;1.52;;;6.30;76.70;;;;;;5051147;28;20013;-79
2021/04/05 11:27:37;;;;;;;7.70;1.17;;;5.80;78.80;;;;;;5052341;28;20029;-78
2021/04/05 11:30:05;;;;;;;11.45;2.10;;;5.50;76.20;;;;;;5050922;28;20039;-78
2021/04/05 11:32:33;;;;;;;13.10;2.60;;;5.20;64.50;;;;;;5051100;28;20020;-77
2021/04/05 11:35:00;;;;;;;9.73;1.75;;;5.20;74.80;;;;;;5050969;28;20103;-77
2021/04/05 11:37:35;;;;;;;9.10;1.55;;;5.30;76.30;;;;;;5050694;28;20025;-77
2021/04/05 11:40:16;;;;;;;13.35;1.83;;;5.50;66.30;;;;;;5050753;28;20064;-77
2021/04/05 11:42:46;;;;;;;12.18;1.63;;;5.70;64.10;;;;;;5051886;28;20017;-80
2021/04/05 11:45:16;;;;;;;8.80;1.77;;;6.20;70.90;;;;;;5052292;28;20025;-80
2021/04/05 11:47:49;;;;;;;10.30;1.95;;;6.80;76.80;;;;;;5050780;28;20055;-80
2021/04/05 11:50:17;;;;;;;10.02;2.55;;;7.20;64.70;;;;;;5050911;28;20117;-80
2021/04/05 11:52:55;;;;;;;7.97;1.40;;;7.60;60.40;;;;;;5051905;28;20458;-81
2021/04/05 11:55:29;;;;;;;7.68;2.28;;;8.00;80.10;;;;;;5050884;28;20388;-80
2021/04/05 11:58:11;;;;;;;8.63;1.95;;;8.20;54.90;;;;;;5050631;28;20024;-81
2021/04/05 12:00:47;;;;;;;7.72;1.55;;;8.50;60.30;;;;;;5050837;28;20024;-81
2021/04/05 12:03:34;;;;;;;10.13;2.08;;;9.00;67.00;;;;;;5050747;28;20361;-81
2021/04/05 12:06:08;;;;;;;10.65;2.33;;;9.30;57.50;;;;;;5052005;28;20024;-81
2021/04/05 12:08:45;;;;;;;6.90;1.95;;;9.20;75.80;;;;;;5050231;28;20025;-78
2021/04/05 12:11:12;;;;;;;5.80;0.90;;;9.00;66.90;;;;;;5050545;28;20159;-78
2021/04/05 12:13:47;;;;;;;6.38;2.13;;;8.20;66.00;;;;;;5050147;28;20013;-77
2021/04/05 12:16:14;;;;;;;7.53;0.95;;;7.50;66.70;;;;;;5051574;28;20021;-78
2021/04/05 12:18:43;;;;;;;6.55;1.88;;;7.40;71.90;;;;;;5050246;28;20112;-78
2021/04/05 12:21:14;;;;;;;7.97;2.05;;;7.60;64.20;;;;;;5051642;28;20465;-78
2021/04/05 12:23:41;;;;;;;6.80;1.00;;;8.10;77.80;;;;;;5051659;28;20104;-78
2021/04/05 12:26:08;;;;;;;7.38;1.60;;;8.50;56.20;;;;;;5050606;28;20361;-78
2021/04/05 12:28:38;;;;;;;5.75;1.45;;;8.80;54.70;;;;;;5050368;28;20047;-78
2021/04/05 12:31:06;;;;;;;4.45;1.33;;;8.80;57.10;;;;;;5050595;28;20049;-78
2021/04/05 12:33:35;;;;;;;6.35;1.50;;;8.90;66.90;;;;;;5065931;28;20024;-78
2021/04/05 12:36:03;;;;;;;7.23;2.00;;;8.40;66.30;;;;;;5071634;28;20073;-77
2021/04/05 12:38:32;;;;;;;8.90;1.80;;;7.60;71.60;;;;;;5069783;28;20024;-78
2021/04/05 12:40:59;;;;;;;10.38;1.45;;;6.70;70.40;;;;;;5071682;28;20017;-80
2021/04/05 12:43:28;;;;;;;8.40;1.55;;;6.10;72.70;;;;;;5070214;28;20360;-78
2021/04/05 12:45:55;;;;;;;5.28;1.70;;;5.90;80.50;;;;;;5070309;28;20103;-78
2021/04/05 12:48:31;;;;;;;7.53;1.35;;;6.00;70.20;;;;;;5072509;28;20051;-81
2021/04/05 12:51:01;;;;;;;5.07;1.40;;;6.40;72.20;;;;;;5073026;28;20025;-80
2021/04/05 12:53:29;;;;;;;7.63;1.35;;;6.80;68.50;;;;;;5070750;28;20117;-80
2021/04/05 12:55:57;;;;;;;13.00;2.17;;;7.20;64.70;;;;;;5070558;28;20043;-80
2021/04/05 12:58:34;;;;;;;6.03;0.98;;;7.60;62.80;;;;;;5071947;28;20066;-78
2021/04/05 13:01:01;;;;;;;4.55;1.45;;;7.80;72.00;;;;;;5071633;28;20013;-77
2021/04/05 13:03:34;;;;;;;10.55;1.67;;;8.00;63.10;;;;;;5070471;28;20154;-78
2021/04/05 13:06:13;;;;;;;6.72;1.73;;;8.10;58.40;;;;;;5070419;28;20111;-78
2021/04/05 13:08:55;;;;;;;5.60;1.10;;;8.30;58.50;;;;;;5071971;28;20021;-77
2021/04/05 13:11:28;;;;;;;5.15;1.02;;;8.50;65.40;;;;;;5070641;28;20039;-78
2021/04/05 13:14:02;;;;;;;2.42;1.20;;;8.60;58.50;;;;;;5073282;28;20052;-77
2021/04/05 13:16:32;;;;;;;6.30;1.67;;;8.60;54.80;;;;;;5065367;28;20036;-78
2021/04/05 13:19:01;;;;;;;4.68;1.25;;;8.50;52.00;;;;;;5053717;28;20372;-77
2021/04/05 13:21:34;;;;;;;6.72;1.73;;;8.40;58.40;;;;;;5053494;28;20021;-78
2021/04/05 13:24:01;;;;;;;5.38;1.65;;;8.60;62.20;;;;;;5054177;28;20048;-77
2021/04/05 13:26:34;;;;;;;6.60;1.40;;;8.80;56.60;;;;;;5054855;28;20052;-77